Time;durP1;ratioP1;P1;durP2;ratioP2;P2;SDS_P1;SDS_P2;PMS_P1;PMS_P2;Temp;Humidity;BMP_temperature;BMP_pressure;BME280_temperature;BME280_humidity;BME280_pressure;Samples;Min_cycle;Max_cycle;Signal;HPM_P1;HPM_P2
2021/07/11 00:00:22;;;;;;;;;;;;;;;;;;4911692;28;19915;-94
2021/07/11 00:02:50;;;;;;;;;;;;;;;;;;4942534;28;19931;-93
2021/07/11 00:05:21;;;;;;;;;;;;;;;;;;4941804;28;19931;-93
2021/07/11 00:07:49;;;;;;;;;;;;;;;;;;4929869;28;19927;-93
2021/07/11 00:10:19;;;;;;;;;;;;;;;;;;4907152;29;19927;-92
2021/07/11 00:12:48;;;;;;;;;;;;;;;;;;4922781;29;19927;-93
2021/07/11 00:15:17;;;;;;;;;;;;;;;;;;4921444;29;19927;-93
2021/07/11 00:17:48;;;;;;;;;;;;;;;;;;4906925;29;19927;-92
2021/07/11 00:20:16;;;;;;;;;;;;;;;;;;4937860;28;19927;-93
2021/07/11 00:22:47;;;;;;;;;;;;;;;;;;4921026;29;19934;-93
2021/07/11 00:25:16;;;;;;;;;;;;;;;;;;4921234;29;19927;-93
2021/07/11 00:27:45;;;;;;;;;;;;;;;;;;4905004;29;19927;-94
2021/07/11 00:30:14;;;;;;;;;;;;;;;;;;4918491;29;20414;-91
2021/07/11 00:32:42;;;;;;;;;;;;;;;;;;4933931;29;20310;-93
2021/07/11 00:35:12;;;;;;;;;;;;;;;;;;4932709;29;19927;-93
2021/07/11 00:37:40;;;;;;;;;;;;;;;;;;4925961;29;19931;-92
2021/07/11 00:40:11;;;;;;;;;;;;;;;;;;4919804;29;19942;-93
2021/07/11 00:42:44;;;;;;;;;;;;;;;;;;4920803;29;19927;-95
2021/07/11 00:45:14;;;;;;;;;;;;;;;;;;4920298;29;19927;-92
2021/07/11 00:47:46;;;;;;;;;;;;;;;;;;4919562;29;19927;-92
2021/07/11 00:50:15;;;;;;;;;;;;;;;;;;4901130;29;19934;-92
2021/07/11 00:52:44;;;;;;;;;;;;;;;;;;4918463;29;20393;-91
2021/07/11 00:55:23;;;;;;;;;;;;;;;;;;4933366;29;19931;-92
2021/07/11 00:57:52;;;;;;;;;;;;;;;;;;4930675;29;19932;-91
2021/07/11 01:00:24;;;;;;;;;;;;;;;;;;4918816;29;20408;-92
2021/07/11 01:03:03;;;;;;;;;;;;;;;;;;4921264;29;19959;-91
2021/07/11 01:05:31;;;;;;;;;;;;;;;;;;4911122;29;19946;-91
2021/07/11 01:08:02;;;;;;;;;;;;;;;;;;4922073;29;19931;-93
2021/07/11 01:10:34;;;;;;;;;;;;;;;;;;4936133;28;19927;-92
2021/07/11 01:13:04;;;;;;;;;;;;;;;;;;4936875;29;19927;-91
2021/07/11 01:15:34;;;;;;;;;;;;;;;;;;4912487;29;19947;-92
2021/07/11 01:18:03;;;;;;;;;;;;;;;;;;4917583;29;19927;-91
2021/07/11 01:20:45;;;;;;;;;;;;;;;;;;4917301;29;20412;-91
2021/07/11 01:23:15;;;;;;;;;;;;;;;;;;4918824;29;19937;-92
2021/07/11 01:25:46;;;;;;;;;;;;;;;;;;4894079;29;19950;-91
2021/07/11 01:28:16;;;;;;;;;;;;;;;;;;4916915;29;19927;-90
2021/07/11 01:30:47;;;;;;;;;;;;;;;;;;4917928;29;19934;-91
2021/07/11 01:33:16;;;;;;;;;;;;;;;;;;4918481;29;20456;-90
2021/07/11 01:35:46;;;;;;;;;;;;;;;;;;4921771;29;19927;-92
2021/07/11 01:38:14;;;;;;;;;;;;;;;;;;4937885;29;20337;-91
2021/07/11 01:40:46;;;;;;;;;;;;;;;;;;4920053;29;20034;-93
2021/07/11 01:43:16;;;;;;;;;;;;;;;;;;4934445;29;20317;-89
2021/07/11 01:45:44;;;;;;;;;;;;;;;;;;4929328;29;20309;-91
2021/07/11 01:48:13;;;;;;;;;;;;;;;;;;4941988;28;19927;-91
2021/07/11 01:50:44;;;;;;;;;;;;;;;;;;4943120;29;19926;-91
2021/07/11 01:53:12;;;;;;;;;;;;;;;;;;4936469;29;19931;-91
2021/07/11 01:55:40;;;;;;;;;;;;;;;;;;4925244;29;19927;-91
2021/07/11 01:58:10;;;;;;;;;;;;;;;;;;4927710;29;19935;-91
2021/07/11 02:00:45;;;;;;;;;;;;;;;;;;4919949;29;20370;-90
2021/07/11 02:03:15;;;;;;;;;;;;;;;;;;4934240;29;20409;-90
2021/07/11 02:05:51;;;;;;;;;;;;;;;;;;4918238;29;19931;-92
2021/07/11 02:08:24;;;;;;;;;;;;;;;;;;4921398;29;19934;-90
2021/07/11 02:10:56;;;;;;;;;;;;;;;;;;4917407;29;19950;-93
2021/07/11 02:13:39;;;;;;;;;;;;;;;;;;4920453;29;19943;-90
2021/07/11 02:16:11;;;;;;;;;;;;;;;;;;4916889;29;19934;-92
2021/07/11 02:18:43;;;;;;;;;;;;;;;;;;4925419;29;19939;-92
2021/07/11 02:21:20;;;;;;;;;;;;;;;;;;4938520;29;19930;-93
2021/07/11 02:23:51;;;;;;;;;;;;;;;;;;4944587;29;19927;-92
2021/07/11 02:26:21;;;;;;;;;;;;;;;;;;4944942;29;19926;-92
2021/07/11 02:28:52;;;;;;;;;;;;;;;;;;4924826;29;19926;-92
2021/07/11 02:31:21;;;;;;;;;;;;;;;;;;4926116;29;20324;-91
2021/07/11 02:33:50;;;;;;;;;;;;;;;;;;4924840;29;20401;-92
2021/07/11 02:36:23;;;;;;;;;;;;;;;;;;4914732;29;20309;-90
2021/07/11 02:38:57;;;;;;;;;;;;;;;;;;4906041;29;20316;-92
2021/07/11 02:41:39;;;;;;;;;;;;;;;;;;4905796;29;20312;-93
2021/07/11 02:44:09;;;;;;;;;;;;;;;;;;4922002;29;20274;-92
2021/07/11 02:46:53;;;;;;;;;;;;;;;;;;4936123;29;19927;-91
2021/07/11 02:54:00;;;;;;;;;;;;;;;;;;4878234;29;19943;-94
2021/07/11 03:01:37;;;;;;;;;;;;;;;;;;;;;
2021/07/11 03:20:16;;;;;;;;;;;;;;;;;;4921974;29;19927;-93
2021/07/11 03:23:19;;;;;;;;;;;;;;;;;;4924085;29;19938;-92
2021/07/11 03:26:28;;;;;;;;;;;;;;;;;;4933166;28;19911;-94
2021/07/11 03:28:59;;;;;;;;;;;;;;;;;;4926938;28;19911;-95
2021/07/11 03:31:31;;;;;;;;;;;;;;;;;;4926883;28;19911;-95
2021/07/11 03:34:01;;;;;;;;;;;;;;;;;;4942043;28;19915;-93
2021/07/11 03:36:30;;;;;;;;;;;;;;;;;;4942329;28;19919;-94
2021/07/11 03:39:07;;;;;;;;;;;;;;;;;;4946458;28;19917;-94
2021/07/11 03:41:42;;;;;;;;;;;;;;;;;;4957848;28;19914;-93
2021/07/11 03:44:15;;;;;;;;;;;;;;;;;;4929497;29;19911;-93
2021/07/11 03:46:47;;;;;;;;;;;;;;;;;;4912983;29;19928;-93
2021/07/11 03:49:17;;;;;;;;;;;;;;;;;;4924458;29;19927;-93
2021/07/11 03:51:50;;;;;;;;;;;;;;;;;;4906456;29;19927;-93
2021/07/11 03:54:22;;;;;;;;;;;;;;;;;;4923140;29;19931;-93
2021/07/11 04:00:56;;;;;;;;;;;;;;;;;;4905188;29;19934;-94
2021/07/11 04:03:47;;;;;;;;;;;;;;;;;;4914450;29;19927;-92
2021/07/11 04:06:22;;;;;;;;;;;;;;;;;;4923199;29;19927;-93
2021/07/11 04:08:52;;;;;;;;;;;;;;;;;;4902190;29;19935;-93
2021/07/11 04:11:20;;;;;;;;;;;;;;;;;;4918950;29;20317;-92
2021/07/11 04:13:48;;;;;;;;;;;;;;;;;;4921068;29;19931;-92
2021/07/11 04:16:16;;;;;;;;;;;;;;;;;;4902281;29;19927;-91
2021/07/11 04:18:45;;;;;;;;;;;;;;;;;;4904268;29;19931;-94
2021/07/11 04:21:14;;;;;;;;;;;;;;;;;;4927923;29;20304;-89
2021/07/11 04:23:43;;;;;;;;;;;;;;;;;;4919184;29;19928;-91
2021/07/11 04:26:12;;;;;;;;;;;;;;;;;;4918499;29;20420;-90
2021/07/11 04:28:42;;;;;;;;;;;;;;;;;;4918743;29;19934;-91
2021/07/11 04:31:10;;;;;;;;;;;;;;;;;;4917341;29;19927;-91
2021/07/11 04:33:40;;;;;;;;;;;;;;;;;;4934260;29;19927;-93
2021/07/11 04:36:08;;;;;;;;;;;;;;;;;;4917395;29;19935;-92
2021/07/11 04:38:37;;;;;;;;;;;;;;;;;;4922752;29;19935;-90
2021/07/11 04:41:08;;;;;;;;;;;;;;;;;;4922692;28;19942;-90
2021/07/11 04:43:36;;;;;;;;;;;;;;;;;;4922772;28;19938;-92
2021/07/11 04:46:04;;;;;;;;;;;;;;;;;;4918874;29;19954;-92
2021/07/11 04:48:33;;;;;;;;;;;;;;;;;;4919683;29;19927;-90
2021/07/11 04:51:01;;;;;;;;;;;;;;;;;;4919682;29;19935;-92
2021/07/11 04:53:29;;;;;;;;;;;;;;;;;;4938250;28;19943;-92
2021/07/11 04:55:58;;;;;;;;;;;;;;;;;;4922362;29;19934;-92
2021/07/11 05:27:27;;;;;;;;;;;;;;;;;;4931426;28;19927;-82
2021/07/11 05:29:58;;;;;;;;;;;;;;;;;;4954162;28;19934;-86
2021/07/11 05:32:29;;;;;;;;;;;;;;;;;;4956191;28;19930;-86
2021/07/11 05:35:01;;;;;;;;;;;;;;;;;;4933772;28;19941;-87
2021/07/11 05:37:33;;;;;;;;;;;;;;;;;;4942263;28;19930;-88
2021/07/11 05:40:06;;;;;;;;;;;;;;;;;;4930768;28;19938;-87
2021/07/11 05:43:13;;;;;;;;;;;;;;;;;;4946937;28;19937;-86
2021/07/11 05:45:48;;;;;;;;;;;;;;;;;;4926281;28;19927;-85
2021/07/11 05:48:18;;;;;;;;;;;;;;;;;;4945384;28;19934;-85
2021/07/11 05:50:47;;;;;;;;;;;;;;;;;;4949600;28;19930;-85
2021/07/11 05:53:17;;;;;;;;;;;;;;;;;;4938979;28;19931;-88
2021/07/11 05:55:46;;;;;;;;;;;;;;;;;;4942545;28;19930;-85
2021/07/11 05:58:17;;;;;;;;;;;;;;;;;;4942776;29;19926;-85
2021/07/11 06:00:46;;;;;;;;;;;;;;;;;;4952400;28;19927;-86
2021/07/11 06:03:17;;;;;;;;;;;;;;;;;;4953410;28;19933;-84
2021/07/11 06:05:47;;;;;;;;;;;;;;;;;;4936824;28;19926;-86
2021/07/11 06:08:16;;;;;;;;;;;;;;;;;;4949562;28;19927;-85
2021/07/11 06:10:46;;;;;;;;;;;;;;;;;;4935690;28;19942;-85
2021/07/11 06:13:17;;;;;;;;;;;;;;;;;;4941641;28;19930;-85
2021/07/11 06:15:46;;;;;;;;;;;;;;;;;;4941150;28;19927;-84
2021/07/11 06:18:15;;;;;;;;;;;;;;;;;;4947324;28;20399;-88
2021/07/11 06:20:45;;;;;;;;;;;;;;;;;;4955520;28;20417;-85
2021/07/11 06:23:16;;;;;;;;;;;;;;;;;;4948715;28;19942;-88
2021/07/11 06:25:47;;;;;;;;;;;;;;;;;;4940293;28;19935;-89
2021/07/11 06:28:20;;;;;;;;;;;;;;;;;;4957295;28;19926;-86
2021/07/11 06:30:51;;;;;;;;;;;;;;;;;;4952622;28;19942;-86
2021/07/11 06:33:22;;;;;;;;;;;;;;;;;;4958388;28;20370;-87
2021/07/11 06:35:53;;;;;;;;;;;;;;;;;;4950754;28;19941;-85
2021/07/11 06:38:23;;;;;;;;;;;;;;;;;;4951965;28;20471;-85
2021/07/11 06:40:52;;;;;;;;;;;;;;;;;;4941526;28;19931;-88
2021/07/11 06:43:23;;;;;;;;;;;;;;;;;;4951248;28;19934;-84
2021/07/11 06:45:57;;;;;;;;;;;;;;;;;;4954315;28;20399;-88
2021/07/11 06:48:27;;;;;;;;;;;;;;;;;;4957861;28;19931;-89
2021/07/11 06:50:57;;;;;;;;;;;;;;;;;;4943084;28;19927;-85
2021/07/11 06:53:26;;;;;;;;;;;;;;;;;;4954508;28;19934;-88
2021/07/11 06:55:55;;;;;;;;;;;;;;;;;;4946102;29;19933;-86
2021/07/11 06:58:26;;;;;;;;;;;;;;;;;;4951125;28;19926;-86
2021/07/11 07:01:12;;;;;;;;;;;;;;;;;;4948051;28;19927;-88
2021/07/11 07:04:04;;;;;;;;;;;;;;;;;;4944443;28;19935;-87
2021/07/11 07:06:37;;;;;;;;;;;;;;;;;;4961793;28;19938;-89
2021/07/11 07:09:07;;;;;;;;;;;;;;;;;;4939740;28;19926;-89
2021/07/11 07:11:37;;;;;;;;;;;;;;;;;;4934180;29;19927;-87
2021/07/11 07:14:07;;;;;;;;;;;;;;;;;;4936652;28;19926;-88
2021/07/11 07:16:35;;;;;;;;;;;;;;;;;;4934246;28;19930;-87
2021/07/11 07:19:05;;;;;;;;;;;;;;;;;;4949997;28;19910;-91
2021/07/11 07:21:36;;;;;;;;;;;;;;;;;;4972435;28;19934;-90
2021/07/11 07:24:08;;;;;;;;;;;;;;;;;;4955035;28;19926;-86
2021/07/11 07:26:37;;;;;;;;;;;;;;;;;;4961875;28;19937;-90
2021/07/11 07:29:08;;;;;;;;;;;;;;;;;;4937231;28;19927;-85
2021/07/11 07:31:47;;;;;;;;;;;;;;;;;;4943425;28;19927;-84
2021/07/11 07:34:30;;;;;;;;;;;;;;;;;;4953615;28;19937;-86
2021/07/11 07:37:08;;;;;;;;;;;;;;;;;;4960425;28;19926;-87
2021/07/11 07:39:42;;;;;;;;;;;;;;;;;;4953674;28;19937;-89
2021/07/11 07:42:10;;;;;;;;;;;;;;;;;;4939539;29;19927;-87
2021/07/11 07:44:41;;;;;;;;;;;;;;;;;;4960791;28;19941;-84
2021/07/11 07:47:10;;;;;;;;;;;;;;;;;;4957867;28;19937;-84
2021/07/11 07:49:39;;;;;;;;;;;;;;;;;;4958040;28;19927;-85
2021/07/11 07:52:09;;;;;;;;;;;;;;;;;;4959654;28;19942;-86
2021/07/11 07:54:38;;;;;;;;;;;;;;;;;;4975655;28;19937;-84
2021/07/11 07:57:08;;;;;;;;;;;;;;;;;;4943459;29;19926;-89
2021/07/11 07:59:47;;;;;;;;;;;;;;;;;;4963551;28;20003;-87
2021/07/11 08:02:17;;;;;;;;;;;;;;;;;;4957092;28;19934;-86
2021/07/11 08:04:47;;;;;;;;;;;;;;;;;;4952655;28;19926;-84
2021/07/11 08:07:33;;;;;;;;;;;;;;;;;;4955583;28;20382;-86
2021/07/11 08:10:47;;;;;;;;;;;;;;;;;;4953550;28;19927;-84
2021/07/11 08:13:40;;;;;;;;;;;;;;;;;;4954079;28;19938;-86
2021/07/11 08:16:24;;;;;;;;;;;;;;;;;;4955104;28;19927;-84
2021/07/11 08:19:31;;;;;;;;;;;;;;;;;;4938370;28;19926;-85
2021/07/11 08:22:34;;;;;;;;;;;;;;;;;;4937588;29;19930;-88
2021/07/11 08:25:13;;;;;;;;;;;;;;;;;;4942159;28;19933;-87
2021/07/11 08:27:52;;;;;;;;;;;;;;;;;;4942454;28;19934;-84
2021/07/11 08:30:28;;;;;;;;;;;;;;;;;;4973549;28;19927;-84
2021/07/11 08:36:09;;;;;;;;;;;;;;;;;;4982006;28;19926;-89
2021/07/11 08:38:46;;;;;;;;;;;;;;;;;;4965524;28;19927;-84
2021/07/11 08:41:21;;;;;;;;;;;;;;;;;;4958615;28;19927;-84
2021/07/11 08:44:03;;;;;;;;;;;;;;;;;;4945201;28;19927;-86
2021/07/11 08:47:07;;;;;;;;;;;;;;;;;;4960912;28;19926;-84
2021/07/11 08:49:41;;;;;;;;;;;;;;;;;;4959899;28;19934;-86
2021/07/11 08:52:13;;;;;;;;;;;;;;;;;;4935647;29;19926;-86
2021/07/11 08:54:45;;;;;;;;;;;;;;;;;;4954822;28;19926;-86
2021/07/11 08:57:14;;;;;;;;;;;;;;;;;;4946893;28;19935;-86
2021/07/11 08:59:43;;;;;;;;;;;;;;;;;;4941914;28;19926;-86
2021/07/11 09:02:12;;;;;;;;;;;;;;;;;;4960578;28;20022;-88
2021/07/11 09:04:42;;;;;;;;;;;;;;;;;;4951852;28;19927;-86
2021/07/11 09:07:18;;;;;;;;;;;;;;;;;;4954926;28;19931;-86
2021/07/11 09:09:53;;;;;;;;;;;;;;;;;;4937076;28;19926;-86
2021/07/11 09:12:22;;;;;;;;;;;;;;;;;;4956923;28;19926;-86
2021/07/11 09:15:00;;;;;;;;;;;;;;;;;;4946614;28;19941;-88
2021/07/11 09:17:33;;;;;;;;;;;;;;;;;;4963588;28;19935;-87
2021/07/11 09:20:02;;;;;;;;;;;;;;;;;;4946870;28;19937;-86
2021/07/11 09:22:32;;;;;;;;;;;;;;;;;;4954758;28;19926;-84
2021/07/11 09:25:02;;;;;;;;;;;;;;;;;;4943964;28;19945;-86
2021/07/11 09:27:31;;;;;;;;;;;;;;;;;;4938215;29;19927;-85
2021/07/11 09:30:01;;;;;;;;;;;;;;;;;;4948792;28;19934;-85
2021/07/11 09:32:40;;;;;;;;;;;;;;;;;;4948722;29;19933;-88
2021/07/11 09:35:10;;;;;;;;;;;;;;;;;;4958318;28;19934;-88
2021/07/11 09:37:42;;;;;;;;;;;;;;;;;;4942556;29;19930;-83
2021/07/11 09:40:11;;;;;;;;;;;;;;;;;;4949859;28;19910;-89
2021/07/11 09:42:47;;;;;;;;;;;;;;;;;;4956199;28;19938;-87
2021/07/11 09:45:17;;;;;;;;;;;;;;;;;;4963701;28;19915;-89
2021/07/11 09:47:47;;;;;;;;;;;;;;;;;;4953424;28;19931;-85
2021/07/11 09:50:19;;;;;;;;;;;;;;;;;;4942976;29;19938;-86
2021/07/11 09:52:50;;;;;;;;;;;;;;;;;;4957651;28;19927;-84
2021/07/11 09:55:32;;;;;;;;;;;;;;;;;;4952599;28;19931;-85
2021/07/11 09:58:32;;;;;;;;;;;;;;;;;;4949445;28;19926;-85
2021/07/11 10:04:17;;;;;;;;;;;;;;;;;;4970864;28;20402;-84
2021/07/11 10:06:46;;;;;;;;;;;;;;;;;;4962146;28;20418;-84
2021/07/11 10:09:16;;;;;;;;;;;;;;;;;;4954060;28;19931;-85
2021/07/11 10:11:45;;;;;;;;;;;;;;;;;;4936195;28;19934;-86
2021/07/11 10:14:15;;;;;;;;;;;;;;;;;;4967929;28;19925;-88
2021/07/11 10:16:43;;;;;;;;;;;;;;;;;;4975170;28;19931;-87
2021/07/11 10:19:13;;;;;;;;;;;;;;;;;;4962142;28;19933;-83
2021/07/11 10:21:45;;;;;;;;;;;;;;;;;;4943610;28;19926;-83
2021/07/11 10:24:19;;;;;;;;;;;;;;;;;;4955518;28;20649;-85
2021/07/11 10:27:01;;;;;;;;;;;;;;;;;;4946317;28;19927;-83
2021/07/11 10:30:05;;;;;;;;;;;;;;;;;;4957098;28;19926;-86
2021/07/11 10:41:13;;;;;;;;;;;;;;;;;;4885376;29;19935;-86
2021/07/11 10:44:00;;;;;;;;;;;;;;;;;;4896804;29;19928;-84
2021/07/11 10:46:32;;;;;;;;;;;;;;;;;;4868902;29;19935;-85
2021/07/11 10:49:11;;;;;;;;;;;;;;;;;;4873302;29;19944;-85
2021/07/11 10:51:59;;;;;;;;;;;;;;;;;;4871126;29;19928;-84
2021/07/11 10:54:31;;;;;;;;;;;;;;;;;;4885213;29;19932;-83
2021/07/11 10:57:04;;;;;;;;;;;;;;;;;;4876383;29;19935;-86
2021/07/11 11:00:00;;;;;;;;;;;;;;;;;;4869788;29;20381;-86
2021/07/11 11:03:06;;;;;;;;;;;;;;;;;;4870758;29;19938;-86
2021/07/11 11:06:02;;;;;;;;;;;;;;;;;;4885280;29;19928;-85
2021/07/11 11:08:31;;;;;;;;;;;;;;;;;;4859635;29;19932;-86
2021/07/11 11:11:08;;;;;;;;;;;;;;;;;;4881297;29;19962;-86
2021/07/11 11:13:37;;;;;;;;;;;;;;;;;;4881823;29;19932;-85
2021/07/11 11:16:17;;;;;;;;;;;;;;;;;;4868379;29;19928;-87
2021/07/11 11:18:51;;;;;;;;;;;;;;;;;;4882182;29;19928;-87
2021/07/11 11:21:37;;;;;;;;;;;;;;;;;;4865998;29;19939;-86
2021/07/11 11:24:49;;;;;;;;;;;;;;;;;;4876855;29;20151;-86
2021/07/11 11:27:51;;;;;;;;;;;;;;;;;;4864008;29;19935;-84
2021/07/11 11:31:09;;;;;;;;;;;;;;;;;;4884999;29;20054;-85
2021/07/11 11:33:55;;;;;;;;;;;;;;;;;;4883888;29;19932;-85
2021/07/11 11:36:29;;;;;;;;;;;;;;;;;;4883755;29;19928;-85
2021/07/11 11:39:06;;;;;;;;;;;;;;;;;;4883451;29;19932;-86
2021/07/11 11:41:37;;;;;;;;;;;;;;;;;;4890524;29;19928;-88
2021/07/11 11:44:06;;;;;;;;;;;;;;;;;;4889207;29;20113;-86
2021/07/11 11:46:35;;;;;;;;;;;;;;;;;;4876617;29;19938;-84
2021/07/11 11:49:06;;;;;;;;;;;;;;;;;;4869858;29;19935;-86
2021/07/11 11:51:35;;;;;;;;;;;;;;;;;;4868730;29;19961;-85
2021/07/11 11:54:04;;;;;;;;;;;;;;;;;;4880712;29;19935;-86
2021/07/11 11:56:32;;;;;;;;;;;;;;;;;;4881476;29;19938;-85
2021/07/11 11:59:02;;;;;;;;;;;;;;;;;;4870177;29;19928;-86
2021/07/11 12:01:30;;;;;;;;;;;;;;;;;;4867098;29;20217;-86
2021/07/11 12:04:08;;;;;;;;;;;;;;;;;;4860735;29;19927;-87
2021/07/11 12:06:37;;;;;;;;;;;;;;;;;;4894989;29;20006;-87
2021/07/11 12:09:07;;;;;;;;;;;;;;;;;;4875958;29;19946;-87
2021/07/11 12:11:37;;;;;;;;;;;;;;;;;;4873834;29;19950;-88
2021/07/11 12:14:10;;;;;;;;;;;;;;;;;;4878567;29;19928;-86
2021/07/11 12:16:39;;;;;;;;;;;;;;;;;;4875870;29;19943;-87
2021/07/11 12:19:09;;;;;;;;;;;;;;;;;;4879474;29;20400;-85
2021/07/11 12:21:40;;;;;;;;;;;;;;;;;;4877364;29;19936;-85
2021/07/11 12:24:09;;;;;;;;;;;;;;;;;;4871049;29;19928;-85
2021/07/11 12:26:38;;;;;;;;;;;;;;;;;;4877044;29;19928;-85
2021/07/11 12:29:07;;;;;;;;;;;;;;;;;;4859435;29;19928;-87
2021/07/11 12:31:36;;;;;;;;;;;;;;;;;;4871805;29;19931;-86
2021/07/11 12:34:05;;;;;;;;;;;;;;;;;;4871476;29;19928;-86
2021/07/11 12:36:35;;;;;;;;;;;;;;;;;;4878974;29;19928;-86
2021/07/11 12:39:15;;;;;;;;;;;;;;;;;;4877810;29;19927;-85
2021/07/11 12:41:47;;;;;;;;;;;;;;;;;;4894488;29;19928;-85
2021/07/11 12:44:17;;;;;;;;;;;;;;;;;;4877101;29;19944;-86
2021/07/11 12:46:46;;;;;;;;;;;;;;;;;;4865233;29;19928;-86
2021/07/11 12:49:15;;;;;;;;;;;;;;;;;;4861949;29;19928;-86
2021/07/11 12:51:48;;;;;;;;;;;;;;;;;;4863528;29;19928;-87
2021/07/11 12:54:17;;;;;;;;;;;;;;;;;;4861829;29;19935;-86
2021/07/11 12:56:52;;;;;;;;;;;;;;;;;;4878469;29;19928;-85
2021/07/11 12:59:28;;;;;;;;;;;;;;;;;;4865897;29;20380;-86
2021/07/11 13:02:00;;;;;;;;;;;;;;;;;;4874725;29;19944;-88
2021/07/11 13:04:29;;;;;;;;;;;;;;;;;;4862148;29;19936;-86
2021/07/11 13:07:02;;;;;;;;;;;;;;;;;;4860383;29;19932;-90
2021/07/11 13:09:31;;;;;;;;;;;;;;;;;;4890964;29;19926;-89
2021/07/11 13:11:59;;;;;;;;;;;;;;;;;;4875655;29;19922;-85
2021/07/11 13:14:27;;;;;;;;;;;;;;;;;;4898041;29;19928;-86
2021/07/11 13:16:56;;;;;;;;;;;;;;;;;;4880694;29;19928;-86
2021/07/11 13:19:24;;;;;;;;;;;;;;;;;;4874942;29;19947;-86
2021/07/11 13:21:53;;;;;;;;;;;;;;;;;;4876382;29;19936;-86
2021/07/11 13:24:22;;;;;;;;;;;;;;;;;;4877414;29;20335;-88
2021/07/11 13:26:51;;;;;;;;;;;;;;;;;;4875567;29;20994;-86
2021/07/11 13:29:20;;;;;;;;;;;;;;;;;;4866700;29;20596;-86
2021/07/11 13:31:48;;;;;;;;;;;;;;;;;;4882818;29;19928;-86
2021/07/11 13:34:17;;;;;;;;;;;;;;;;;;4859400;29;19928;-86
2021/07/11 13:36:46;;;;;;;;;;;;;;;;;;4872060;29;19928;-86
2021/07/11 13:39:15;;;;;;;;;;;;;;;;;;4870933;29;19935;-85
2021/07/11 13:41:44;;;;;;;;;;;;;;;;;;4855769;29;20300;-87
2021/07/11 13:44:13;;;;;;;;;;;;;;;;;;4873201;29;19931;-85
2021/07/11 13:46:41;;;;;;;;;;;;;;;;;;4875078;29;19928;-86
2021/07/11 13:49:10;;;;;;;;;;;;;;;;;;4876491;29;20310;-86
2021/07/11 13:51:38;;;;;;;;;;;;;;;;;;4870131;29;20412;-86
2021/07/11 13:54:06;;;;;;;;;;;;;;;;;;4878609;29;19928;-86
2021/07/11 13:56:35;;;;;;;;;;;;;;;;;;4857862;29;19942;-86
2021/07/11 13:59:09;;;;;;;;;;;;;;;;;;4871768;29;20304;-87
2021/07/11 14:01:38;;;;;;;;;;;;;;;;;;4877684;29;19935;-88
2021/07/11 14:04:07;;;;;;;;;;;;;;;;;;4892610;29;19927;-86
2021/07/11 14:06:35;;;;;;;;;;;;;;;;;;4871571;29;19928;-86
2021/07/11 14:09:04;;;;;;;;;;;;;;;;;;4891766;29;19927;-86
2021/07/11 14:11:32;;;;;;;;;;;;;;;;;;4860505;29;19982;-86
2021/07/11 14:14:14;;;;;;;;;;;;;;;;;;4876755;29;19931;-87
2021/07/11 14:16:42;;;;;;;;;;;;;;;;;;4883604;29;20332;-83
2021/07/11 14:19:11;;;;;;;;;;;;;;;;;;4877045;29;19928;-86
2021/07/11 14:21:39;;;;;;;;;;;;;;;;;;4864235;29;19928;-88
2021/07/11 14:24:08;;;;;;;;;;;;;;;;;;4862078;29;19927;-86
2021/07/11 14:26:51;;;;;;;;;;;;;;;;;;4871964;29;19928;-87
2021/07/11 14:29:21;;;;;;;;;;;;;;;;;;4887540;29;19916;-86
2021/07/11 14:31:51;;;;;;;;;;;;;;;;;;4893799;29;19927;-88
2021/07/11 14:34:19;;;;;;;;;;;;;;;;;;4875626;29;19928;-87
2021/07/11 14:37:09;;;;;;;;;;;;;;;;;;4877055;29;20277;-87
2021/07/11 14:39:37;;;;;;;;;;;;;;;;;;4862540;29;19947;-87
2021/07/11 14:42:08;;;;;;;;;;;;;;;;;;4857584;29;19944;-88
2021/07/11 14:44:38;;;;;;;;;;;;;;;;;;4878993;29;19943;-88
2021/07/11 14:47:06;;;;;;;;;;;;;;;;;;4882294;29;19928;-87
2021/07/11 14:49:36;;;;;;;;;;;;;;;;;;4873668;29;19928;-87
2021/07/11 14:52:05;;;;;;;;;;;;;;;;;;4888288;29;19928;-87
2021/07/11 14:54:33;;;;;;;;;;;;;;;;;;4871957;29;20235;-87
2021/07/11 14:57:01;;;;;;;;;;;;;;;;;;4862294;29;20423;-86
2021/07/11 14:59:30;;;;;;;;;;;;;;;;;;4862423;29;19928;-86
2021/07/11 15:01:59;;;;;;;;;;;;;;;;;;4877010;29;19935;-87
2021/07/11 15:04:28;;;;;;;;;;;;;;;;;;4859389;29;20040;-87
2021/07/11 15:06:56;;;;;;;;;;;;;;;;;;4871909;29;19943;-85
2021/07/11 15:09:24;;;;;;;;;;;;;;;;;;4864467;29;19939;-85
2021/07/11 15:11:53;;;;;;;;;;;;;;;;;;4873005;29;19928;-85
2021/07/11 15:14:21;;;;;;;;;;;;;;;;;;4871963;29;19928;-84
2021/07/11 15:16:49;;;;;;;;;;;;;;;;;;4872625;29;19935;-85
2021/07/11 15:19:19;;;;;;;;;;;;;;;;;;4871178;29;20336;-85
2021/07/11 15:21:47;;;;;;;;;;;;;;;;;;4870995;29;19928;-87
2021/07/11 15:24:16;;;;;;;;;;;;;;;;;;4874149;29;19942;-87
2021/07/11 15:26:44;;;;;;;;;;;;;;;;;;4860975;29;19939;-86
2021/07/11 15:29:12;;;;;;;;;;;;;;;;;;4862825;29;19932;-87
2021/07/11 15:31:41;;;;;;;;;;;;;;;;;;4877746;29;19940;-87
2021/07/11 15:34:10;;;;;;;;;;;;;;;;;;4853484;29;19932;-87
2021/07/11 15:36:40;;;;;;;;;;;;;;;;;;4876526;29;19932;-87
2021/07/11 15:39:08;;;;;;;;;;;;;;;;;;4862008;29;20308;-87
2021/07/11 15:41:37;;;;;;;;;;;;;;;;;;4861339;29;19928;-87
2021/07/11 15:44:05;;;;;;;;;;;;;;;;;;4888455;29;20316;-87
2021/07/11 15:46:34;;;;;;;;;;;;;;;;;;4855816;29;19935;-88
2021/07/11 15:49:02;;;;;;;;;;;;;;;;;;4867757;29;19934;-88
2021/07/11 15:51:30;;;;;;;;;;;;;;;;;;4889495;29;19939;-88
2021/07/11 15:54:00;;;;;;;;;;;;;;;;;;4875600;29;19928;-87
2021/07/11 15:56:46;;;;;;;;;;;;;;;;;;4871165;29;19928;-88
2021/07/11 15:59:14;;;;;;;;;;;;;;;;;;4875564;29;19940;-88
2021/07/11 16:01:43;;;;;;;;;;;;;;;;;;4862479;29;19920;-88
2021/07/11 16:04:11;;;;;;;;;;;;;;;;;;4884298;29;19918;-88
2021/07/11 16:06:40;;;;;;;;;;;;;;;;;;4897236;29;20158;-89
2021/07/11 16:09:10;;;;;;;;;;;;;;;;;;4861073;29;20392;-87
2021/07/11 16:11:38;;;;;;;;;;;;;;;;;;4864003;29;20341;-87
2021/07/11 16:14:08;;;;;;;;;;;;;;;;;;4883433;29;20278;-88
2021/07/11 16:16:37;;;;;;;;;;;;;;;;;;4875884;29;19942;-88
2021/07/11 16:19:06;;;;;;;;;;;;;;;;;;4862142;29;19943;-88
2021/07/11 16:21:34;;;;;;;;;;;;;;;;;;4873456;29;19928;-88
2021/07/11 16:24:03;;;;;;;;;;;;;;;;;;4888981;29;19928;-87
2021/07/11 16:26:33;;;;;;;;;;;;;;;;;;4857663;29;22328;-88
2021/07/11 16:29:01;;;;;;;;;;;;;;;;;;4867910;29;19943;-88
2021/07/11 16:31:32;;;;;;;;;;;;;;;;;;4870773;29;19928;-88
2021/07/11 16:34:01;;;;;;;;;;;;;;;;;;4873328;29;19965;-88
2021/07/11 16:36:29;;;;;;;;;;;;;;;;;;4862402;29;22867;-88
2021/07/11 16:38:58;;;;;;;;;;;;;;;;;;4863017;29;19939;-87
2021/07/11 16:41:28;;;;;;;;;;;;;;;;;;4857035;29;19928;-88
2021/07/11 16:43:58;;;;;;;;;;;;;;;;;;4871125;29;20304;-88
2021/07/11 16:46:26;;;;;;;;;;;;;;;;;;4881855;29;20022;-88
2021/07/11 16:48:55;;;;;;;;;;;;;;;;;;4863862;29;19958;-88
2021/07/11 16:51:23;;;;;;;;;;;;;;;;;;4874853;29;19943;-87
2021/07/11 16:53:51;;;;;;;;;;;;;;;;;;4862884;29;20396;-87
2021/07/11 16:56:20;;;;;;;;;;;;;;;;;;4850156;29;19935;-87
2021/07/11 16:58:49;;;;;;;;;;;;;;;;;;4884506;29;19928;-87
2021/07/11 17:01:19;;;;;;;;;;;;;;;;;;4849488;29;20431;-86
2021/07/11 17:03:48;;;;;;;;;;;;;;;;;;4863010;29;19927;-87
2021/07/11 17:06:17;;;;;;;;;;;;;;;;;;4846527;29;19942;-88
2021/07/11 17:08:45;;;;;;;;;;;;;;;;;;4849431;29;19932;-88
2021/07/11 17:11:13;;;;;;;;;;;;;;;;;;4861026;29;19931;-87
2021/07/11 17:13:41;;;;;;;;;;;;;;;;;;4843862;29;19936;-87
2021/07/11 17:16:10;;;;;;;;;;;;;;;;;;4861062;29;19928;-87
2021/07/11 17:18:40;;;;;;;;;;;;;;;;;;4859899;29;19952;-87
2021/07/11 17:21:08;;;;;;;;;;;;;;;;;;4859376;29;19928;-87
2021/07/11 17:23:36;;;;;;;;;;;;;;;;;;4841855;29;19943;-87
2021/07/11 17:26:05;;;;;;;;;;;;;;;;;;4851599;29;20304;-87
2021/07/11 17:28:33;;;;;;;;;;;;;;;;;;4878894;29;20325;-87
2021/07/11 17:31:02;;;;;;;;;;;;;;;;;;4850787;29;20435;-87
2021/07/11 17:33:31;;;;;;;;;;;;;;;;;;4873942;29;19928;-86
2021/07/11 17:36:01;;;;;;;;;;;;;;;;;;4866570;29;19936;-88
2021/07/11 17:38:30;;;;;;;;;;;;;;;;;;4847814;29;19936;-88
2021/07/11 17:40:59;;;;;;;;;;;;;;;;;;4867479;29;19935;-87
2021/07/11 17:43:27;;;;;;;;;;;;;;;;;;4849250;29;19932;-87
2021/07/11 17:45:55;;;;;;;;;;;;;;;;;;4853588;29;19932;-87
2021/07/11 17:48:24;;;;;;;;;;;;;;;;;;4869029;29;19951;-87
2021/07/11 17:50:53;;;;;;;;;;;;;;;;;;4869344;29;19928;-87
2021/07/11 17:53:23;;;;;;;;;;;;;;;;;;4908463;29;19923;-86
2021/07/11 17:55:51;;;;;;;;;;;;;;;;;;4888312;29;19932;-85
2021/07/11 17:58:19;;;;;;;;;;;;;;;;;;4895181;29;19938;-89
2021/07/11 18:00:48;;;;;;;;;;;;;;;;;;4893307;29;20906;-89
2021/07/11 18:03:16;;;;;;;;;;;;;;;;;;4870068;29;19934;-88
2021/07/11 18:05:45;;;;;;;;;;;;;;;;;;4862108;29;19944;-88
2021/07/11 18:08:13;;;;;;;;;;;;;;;;;;4861972;29;19950;-86
2021/07/11 18:10:43;;;;;;;;;;;;;;;;;;4859352;29;19936;-86
2021/07/11 18:13:12;;;;;;;;;;;;;;;;;;4871235;29;19928;-86
2021/07/11 18:15:40;;;;;;;;;;;;;;;;;;4859158;29;19928;-89
2021/07/11 18:18:08;;;;;;;;;;;;;;;;;;4879380;29;19943;-87
2021/07/11 18:20:37;;;;;;;;;;;;;;;;;;4874947;29;20008;-87
2021/07/11 18:23:06;;;;;;;;;;;;;;;;;;4876145;29;19928;-86
2021/07/11 18:25:34;;;;;;;;;;;;;;;;;;4884527;29;19932;-87
2021/07/11 18:28:05;;;;;;;;;;;;;;;;;;4858034;29;19932;-88
2021/07/11 18:30:37;;;;;;;;;;;;;;;;;;4855581;29;19932;-86
2021/07/11 18:33:11;;;;;;;;;;;;;;;;;;4842699;29;21704;-86